Robin De Jong

Olheiro - AZ
6 Mai 2027
Quinta-feira
Processo

Personalidade

Adaptabilidade (2) Ambição (11) Controvérsia (13) Lealdade (6) Pressão (20) Profissionalismo (9) Espírito Esportivo (3) Temperamento (7)

Perfil

Estilo de Treinamento Democrático
Licença Continental C
Determinação 8
Gestão de Pessoas 8
Motivação 10
Disciplina 7
Satisfação no Trabalho
82%
Fadiga
0%
Função Olheiro
Salário 18.2K p/s
Contrato 14.03.2028

Desempenho

Comportamento Bom
Eficácia do Treinamento
42%
Desenvolvimento do Jogador
55%
Prevenção de Lesões
65%
Implementação Tática
50%

Eventos Recentes

Avaliou um jogador agora
Participou de uma reunião de recrutamento agora
Participou de uma reunião de recrutamento agora
Participou de uma reunião de recrutamento 7d atrás
Participou de uma reunião de recrutamento 7d atrás
Avaliou um jogador 7d atrás
Avaliou um jogador 7d atrás
Avaliou um jogador 7d atrás

Monitorando agora

118
Jogador Clube Status Habilidade Confiança Observado Última observação Último voto
Juan Diego Castillo Vitoria Guimaraes Ativo 115 / 129 40% 6 04.05.2027 -
Francesco D'Alterio Ternana Ativo 111 / 106 40% 5 04.05.2027 -
Sem Westerveld Zaragoza Ativo 110 / 112 40% 2 03.05.2027 -
Ludovico Del Sorbo Sorrento Ativo 110 / 118 40% 1 03.05.2027 -
Lorenzo Palmisani Frosinone Ativo 136 / 124 40% 3 02.05.2027 -
Sergio Barlocco Trento Ativo 111 / 109 40% 3 02.05.2027 -
Mathieu Patouillet Stade Brestois Ativo 118 / 114 40% 2 30.04.2027 -
Deniz Ertaş Konyaspor Ativo 107 / 137 40% 1 30.04.2027 -
Strahinja Manojlović Radnicki Nis Ativo 110 / 107 40% 4 28.04.2027 -
Radek Vítek Middlesbrough Ativo 140 / 143 40% 9 26.04.2027 -
Guillaume Restes Toulouse FC Ativo 130 / 137 40% 2 26.04.2027 -
Robin Roefs Sunderland Ativo 153 / 139 40% 3 25.04.2027 -
Gift Hlatshwayo Free State Stars Ativo 98 / 107 40% 2 25.04.2027 -
Erick Reyes Toluca Ativo 140 / 154 40% 9 24.04.2027 -
Tomáš Frühwald Bohemians 1905 Ativo 121 / 121 40% 3 24.04.2027 -
Filip Marschall Stevenage Ativo 117 / 104 40% 2 23.04.2027 -
Emre Bilgin Giresunspor Ativo 102 / 100 40% 2 21.04.2027 -
Ties Wieggers De Graafschap Ativo 107 / 109 40% 3 20.04.2027 -
Elia Boseggia Novara Ativo 108 / 117 40% 1 20.04.2027 -
Davide Mastrantonio Latina Ativo 97 / 102 40% 3 19.04.2027 -
Rome-Jayden Owusu-Oduro Feyenoord Ativo 134 / 146 40% 3 18.04.2027 -
James Trafford Leeds United Ativo 136 / 152 40% 5 14.04.2027 -
Kostantis Tzolakis Hull City Ativo 141 / 146 40% 8 12.04.2027 -
Elia Summa Picerno Ativo 111 / 116 40% 2 11.04.2027 -
Adam Hrdina Zbrojovka Brno Ativo 115 / 104 40% 2 09.04.2027 -
Robin Risser RC Lens Ativo 150 / 145 40% 2 08.04.2027 -
Matteo Rizzo Cosenza Ativo 98 / 109 40% 1 08.04.2027 -
Lorenzo Cordaro Pergolettese Ativo 100 / 108 40% 1 01.04.2027 -
Valerio Boffelli Cavese Ativo 103 / 99 40% 1 25.03.2027 -
Anton Zhylkin Karpaty Ativo 114 / 106 40% 1 25.03.2027 -
Sławomir Abramowicz Jagiellonia Ativo 111 / 114 40% 2 23.03.2027 -
Ilja Tuseev Chelyabinsk Ativo 105 / 109 40% 3 22.03.2027 -
Justin Treichel Roda Ativo 104 / 104 40% 2 17.03.2027 -
Killian Cahill Leyton Orient Ativo 110 / 109 40% 1 16.03.2027 -
Aimar Osasuna Ativo 147 / 154 40% 1 31.12.2026 -
Félix Lemaréchal Club Brugge Ativo 141 / 130 40% 3 30.12.2026 -
Javi Puado Espanyol Ativo 148 / 155 40% 2 30.12.2026 -
Thiago Brentford Ativo 146 / 137 40% 2 29.12.2026 -
Orbelín Pineda Monterrey Ativo 136 / 150 40% 3 28.12.2026 -
Mykyta Turbaievskyi Zorya Ativo 116 / 103 40% 1 27.12.2026 -
Sem Steijn Feyenoord Ativo 153 / 144 40% 2 26.12.2026 Mais informações
Fedor Lapoukhov CSKA Sofia Ativo 112 / 113 40% 1 26.12.2026 -
Jakub Surovčík Sparta Prague Ativo 114 / 105 40% 1 26.12.2026 -
Denys Ihnatenko Livyi Bereh Ativo 121 / 119 40% 2 24.12.2026 -
Georges Mikautadze Villarreal Ativo 155 / 158 40% 2 24.12.2026 -
Joaquín Panichelli Le Havre AC Ativo 135 / 131 40% 1 24.12.2026 -
José Paradela Cruz Azul Ativo 151 / 141 40% 2 22.12.2026 Mais informações
Ilias Sebaoui Sint-Truiden Ativo 121 / 118 40% 2 22.12.2026 -
Jan Koutný Sigma Olomouc Ativo 119 / 125 40% 1 22.12.2026 -
Andreas Jungdal Westerlo Ativo 118 / 124 40% 3 19.12.2026 -
Myron van Brederode KV Mechelen Ativo 126 / 130 40% 1 19.12.2026 -
Yoann Cathline Utrecht Ativo 139 / 123 40% 1 17.12.2026 -
Pol Tristán Barnsley Ativo 117 / 113 40% 3 14.12.2026 -
Franko Kolić Istra 1961 Ativo 106 / 97 40% 1 14.12.2026 -
Jan Virgili Club Brugge Ativo 132 / 135 40% 3 13.12.2026 -
Paulinho Palmeiras Ativo 134 / 144 40% 1 11.12.2026 -
Viktor Tsygankov Ajax Ativo 150 / 159 40% 3 10.12.2026 -
Agustín Palavecino Cruz Azul Ativo 140 / 124 40% 4 10.12.2026 -
Murphy Cooper Plymouth Argyle Ativo 111 / 123 40% 1 09.12.2026 -
Alexandr Koryakin Krasnodar Ativo 96 / 125 40% 1 06.12.2026 -
Carlos Forbs Club Brugge Ativo 127 / 134 40% 6 05.12.2026 -
Thorgan Witsel KV Oostende Ativo 135 / 132 40% 4 04.12.2026 -
Loum Tchaouna Coventry City Ativo 137 / 144 40% 2 04.12.2026 -
Juninho Pumas UNAM Ativo 130 / 136 40% 5 30.11.2026 -
Carlos Vicente Birmingham Ativo 144 / 143 40% 1 30.11.2026 -
Heorhii Yermakov Metalist Ativo 113 / 104 40% 1 29.11.2026 -
Aaron Connolly Leyton Orient Ativo 132 / 115 40% 2 27.11.2026 -
Georginio Rutter Brighton Ativo 141 / 153 40% 1 27.11.2026 -
Bart Verbruggen Brighton Ativo 150 / 157 40% 3 21.11.2026 -
Marco Asensio Fenerbahce Ativo 147 / 167 40% 1 17.11.2026 -
Ruben van Bommel Ferencvaros Ativo 118 / 132 40% 1 14.11.2026 -
Adnan Courtois KV Oostende Ativo 130 / 126 40% 1 14.11.2026 -
Oleksandr Saputin Poltava Ativo 108 / 112 40% 1 14.11.2026 -
Josh Keeley Luton Town Ativo 111 / 118 40% 2 09.11.2026 -
Manuel Rios La Equidad Ativo 109 / 95 40% 3 07.11.2026 -
Freddie Potts Club Brugge Ativo 128 / 135 40% 1 06.11.2026 -
Oscar Gloukh Ajax Ativo 144 / 130 40% 1 05.11.2026 -
Marezi Portsmouth Ativo 126 / 116 40% 1 31.10.2026 -
Adriano Bertaccini Anderlecht Ativo 134 / 133 40% 2 30.10.2026 -
George Hirst Stoke City Ativo 137 / 126 40% 1 30.10.2026 -
Yeremy Pino Crystal Palace Ativo 141 / 141 40% 1 26.10.2026 -
Tristan Degreef Anderlecht Ativo 116 / 115 40% 1 26.10.2026 -
Yaimar Medina Racing Genk Ativo 113 / 113 40% 2 25.10.2026 -
Tobe Leysen OH Leuven Ativo 113 / 113 40% 1 24.10.2026 -
Antonio Gomis Vizela Ativo 116 / 120 40% 1 24.10.2026 -
Juan Brunetta Tigres Ativo 155 / 136 40% 1 24.10.2026 -
Rafiu Durosinmi Racing Genk Ativo 123 / 134 40% 2 21.10.2026 -
Luciano Valente Feyenoord Ativo 128 / 132 40% 1 20.10.2026 -
Xavi Simons Tottenham Ativo 160 / 154 40% 2 17.10.2026 -
Gabriel Jesus Barcelona Ativo 162 / 143 40% 1 17.10.2026 -
Evanilson Bournemouth Ativo 149 / 147 40% 1 15.10.2026 -
Christian Tielemans KV Oostende Ativo 137 / 142 40% 1 14.10.2026 -
Mario Stroeykens Anderlecht Ativo 124 / 118 40% 2 13.10.2026 -
Bart van Rooij Twente Ativo 130 / 136 40% 1 13.10.2026 -
Julian Brandt Ajax Ativo 144 / 143 40% 1 11.10.2026 -
Nahuel Galardi Maipú Ativo 107 / 101 40% 2 09.10.2026 -
Ilay Camara Anderlecht Ativo 138 / 141 40% 2 08.10.2026 -
Reiss Nelson Aston Villa Ativo 134 / 143 40% 1 08.10.2026 -
Anis Hadj Moussa Feyenoord Ativo 136 / 126 40% 1 05.10.2026 -
Yannick Vanaken KV Oostende Ativo 125 / 120 40% 1 05.10.2026 -
Brais Méndez Columbus Crew Ativo 151 / 154 40% 2 04.10.2026 -
Duvan Rangel La Equidad Ativo 139 / 124 40% 1 03.10.2026 -
Tomás Chancalay Minnesota United FC Ativo 139 / 110 40% 1 02.10.2026 -
Bénie Traoré New York City Ativo 120 / 128 40% 2 30.09.2026 -
Jaden Philogene Ipswich Town Ativo 139 / 144 40% 1 30.09.2026 -
Emile Smith Rowe Fulham Ativo 153 / 150 40% 1 28.09.2026 -
Oliver Dovin Coventry City Ativo 114 / 116 40% 2 27.09.2026 -
Mohamed Koné Charleroi Ativo 105 / 96 40% 1 27.09.2026 -
Chris Lokesa Waasland-Beveren Ativo 119 / 134 40% 1 27.09.2026 -
Mikkel Damsgaard Brentford Ativo 149 / 146 40% 1 27.09.2026 -
Nikolas Polster NEC Ativo 131 / 128 40% 1 20.09.2026 -
Facundo Vila Estudiantes Ativo 90 / 95 40% 1 20.09.2026 -
Federico Varese Racing Ativo 113 / 112 40% 1 14.09.2026 -
Danylo Sikan Anderlecht Ativo 123 / 132 40% 2 12.09.2026 -
Julian Zapata Cortulua Ativo 108 / 132 40% 1 11.09.2026 -
Sebastiaan Timmers Racing Genk Ativo 77 / 92 40% 1 11.09.2026 -
Dávid Strelec Middlesbrough Ativo 132 / 138 40% 1 10.09.2026 -
Gabriel Martinelli Brighton Ativo 167 / 166 40% 1 08.09.2026 -